Peoria, IL (61603)

1:48 AM CDT on September 03, 2015 (GMT -0500)
DracoPhyre PWS | Change Station
CLOSE
Current Station
Personal Weather Station
Location: Peoria, IL
Elevation: 640 ft
Nearby Weather Stations

Elev 640 ft 40.72 °N, 89.59 °W | Updated 2 seconds ago

Partly Cloudy
Partly Cloudy
75.2 °F
Feels Like 73 °F
N
0.0
Wind Variable Wind from North
Gusts 0.0 mph

Today
High -- | Low -- °F
--% Chance of Precip.
Yesterday
High -- | Low -- °F
Precip. -- in
6:27 AM 7:27 PM
Waning Gibbous, 73% visible
Pressure 29.96 in
Visibility 10.0 miles
Clouds Clear
Heat Index 73 °F
Dew Point 75 °F
Humidity 99%
Rainfall 0.00 in
Snow Depth Not available.
UV 0 out of 12
Pollen 10.80 out of 12
Ozone Good
PM2.5 Good
Flu Activity Not available.
METAR KPIA 030554Z 18004KT 10SM CLR 24/19 A2998 RMK AO2 SLP146 T02390189 10306 20239 403500222 58000

More Conditions Fewer Conditions

Pressure 29.96 in
Visibility 10.0 miles
Clouds Clear
Heat Index 73 °F
Dew Point 75 °F
Humidity 99%
Rainfall 0.00 in
Snow Depth Not available.
UV 0 out of 12
Pollen 10.80 out of 12
Ozone Good
PM2.5 Good
Flu Activity Not available.
METAR KPIA 030554Z 18004KT 10SM CLR 24/19 A2998 RMK AO2 SLP146 T02390189 10306 20239 403500222 58000

More Conditions Fewer Conditions

10-Day Weather Forecast

Almanac

Astronomy

Sep. 03, 2015 Rise Set
Actual Time 6:27 AM CDT 7:27 PM CDT
Civil Twilight 5:59 AM CDT 7:55 PM CDT
Nautical Twilight 5:25 AM CDT 8:28 PM CDT
Astronomical Twilight 4:50 AM CDT 9:03 PM CDT
Moon 10:49 PM CDT 12:06 PM CDT
Length of Visible Light 13h 56m
Length of Day
13h 00m
Tomorrow will be 2m 36s shorter.
Waning Gibbous, 73% of the Moon is Illuminated
Today
Waning Gibbous
Sep 5
Last Quarter
Sep 13
New
Sep 21
First Quarter
Sep 27
Full

Today's Extremes

State Highs State Lows

Community

WunderPhotos

Upload Photos

1,851,913 photos uploaded!

Nearby

Air Quality

  Air Quality AQ Index Pollutant
Yesterday Moderate
PM2.5
Yesterday Good
OZONE
Current Good
PM2.5
Current Good
OZONE
Thursday Moderate
PM2.5
Thursday Good
OZONE
Friday Moderate
PM2.5
Friday Moderate
OZONE
Saturday Moderate
PM2.5
Saturday Moderate
OZONE
Sunday Moderate
PM2.5
Sunday Moderate
OZONE

Snow Depth

Station Depth Elevation
No new snow has been reported.

Earthquake Activity

City Distance Mag. Time & Date
No recent earthquake activity has been reported nearby.
Minimum magnitude displayed is 2.5.

Coastal Water Temperatures

Place Temperature
No Stations Reporting

Nearby Weather Stations